首页
METAR-TAF:

METAR-TAF

机场 :

紐卡索機場

纽卡斯尔, 澳大利亚

纬度: 32-47-42S, 经度: 151-50-04E, 海拔: 9米

当前天气观测

该预报发布于15分钟前的12:00 UTC
风速5节,风向东转东北
温度 19°C
湿度 88%
气压 1024 hPa
能见度10公里或以上
多云层高于6100英尺

METAR: YWLM 091200Z AUTO 07005KT 9999 // BKN061 19/17 Q1024

时间: 22:15 (12:15 UTC)

预报

该预报发布于1小时和9分钟前的11:06 UTC
预报有效从09日的 12点(UTC)到 10日的 12点(UTC)
风速10节,风向东转东北
能见度10公里或以上
散云层高于1500英尺
多云层高于3000英尺
小阵雨
从 09日的 1800点(UTC)
风速10节,风向北转东北
能见度10公里或以上
散云层高于1200英尺
多云层高于9000英尺
小阵雨
从 10日的 0000点(UTC)
风速10节,风向北转西北
能见度10公里或以上
少量云层高于1500英尺
多云层高于8000英尺
小阵雨

TAF: YWLM 091106Z 0912/1012 06010KT 9999 -SHRA SCT015 BKN030 FM091800 02010KT 9999 -SHRA SCT012 BKN090 FM100000 34010KT 9999 -SHRA FEW015 BKN080

超过4000个机场的气象观测和天气预报(METAR&TAF报告)。

可查询的气象台以黄色和红色小点在地图上表示。

将鼠标移到小点上方,可查看气象台名称。

然后点击查看天气观测和预报。

如需切换地图:点击带黑十字的绿色按钮放大地图;点击带横线的绿色按钮缩小地图;或者点击绿色箭头查看邻近地区的地图。


METAR-TAF: